sensor_id;sensor_type;location;lat;lon;timestamp;P1;durP1;ratioP1;P2;durP2;ratioP2
8628;SDS011;4352;49.404;11.092;2022-12-11T00:01:15;22.47;;;12.97;;
8628;SDS011;4352;49.404;11.092;2022-12-11T00:03:42;26.40;;;13.73;;
8628;SDS011;4352;49.404;11.092;2022-12-11T00:06:12;24.40;;;14.13;;
8628;SDS011;4352;49.404;11.092;2022-12-11T00:08:40;23.77;;;13.63;;
8628;SDS011;4352;49.404;11.092;2022-12-11T00:11:07;24.83;;;13.50;;
8628;SDS011;4352;49.404;11.092;2022-12-11T00:13:34;26.10;;;14.30;;
8628;SDS011;4352;49.404;11.092;2022-12-11T00:16:01;24.57;;;13.53;;
8628;SDS011;4352;49.404;11.092;2022-12-11T00:18:28;25.57;;;13.80;;
8628;SDS011;4352;49.404;11.092;2022-12-11T00:20:58;25.60;;;13.87;;
8628;SDS011;4352;49.404;11.092;2022-12-11T00:23:27;25.93;;;13.87;;
8628;SDS011;4352;49.404;11.092;2022-12-11T00:25:54;25.97;;;14.47;;
8628;SDS011;4352;49.404;11.092;2022-12-11T00:28:22;23.03;;;13.07;;
8628;SDS011;4352;49.404;11.092;2022-12-11T00:30:49;26.20;;;14.67;;
8628;SDS011;4352;49.404;11.092;2022-12-11T00:33:16;29.17;;;15.40;;
8628;SDS011;4352;49.404;11.092;2022-12-11T00:35:43;24.13;;;14.10;;
8628;SDS011;4352;49.404;11.092;2022-12-11T00:38:13;26.23;;;14.47;;
8628;SDS011;4352;49.404;11.092;2022-12-11T00:40:42;26.63;;;15.23;;
8628;SDS011;4352;49.404;11.092;2022-12-11T00:43:10;29.07;;;14.30;;
8628;SDS011;4352;49.404;11.092;2022-12-11T00:45:39;25.43;;;14.57;;
8628;SDS011;4352;49.404;11.092;2022-12-11T00:48:07;23.00;;;13.60;;
8628;SDS011;4352;49.404;11.092;2022-12-11T00:50:34;25.27;;;13.60;;
8628;SDS011;4352;49.404;11.092;2022-12-11T00:53:02;25.73;;;13.50;;
8628;SDS011;4352;49.404;11.092;2022-12-11T00:55:29;23.37;;;13.20;;
8628;SDS011;4352;49.404;11.092;2022-12-11T00:57:58;25.03;;;14.27;;
8628;SDS011;4352;49.404;11.092;2022-12-11T01:00:25;25.80;;;13.30;;
8628;SDS011;4352;49.404;11.092;2022-12-11T01:02:52;27.43;;;13.43;;
8628;SDS011;4352;49.404;11.092;2022-12-11T01:05:19;22.93;;;13.73;;
8628;SDS011;4352;49.404;11.092;2022-12-11T01:07:47;23.30;;;13.43;;
8628;SDS011;4352;49.404;11.092;2022-12-11T01:10:14;25.97;;;15.17;;
8628;SDS011;4352;49.404;11.092;2022-12-11T01:12:49;27.20;;;14.87;;
8628;SDS011;4352;49.404;11.092;2022-12-11T01:15:18;26.33;;;14.50;;
8628;SDS011;4352;49.404;11.092;2022-12-11T01:17:45;29.63;;;15.50;;
8628;SDS011;4352;49.404;11.092;2022-12-11T01:20:12;25.90;;;14.67;;
8628;SDS011;4352;49.404;11.092;2022-12-11T01:22:39;26.33;;;14.77;;
8628;SDS011;4352;49.404;11.092;2022-12-11T01:25:07;27.67;;;14.97;;
8628;SDS011;4352;49.404;11.092;2022-12-11T01:27:34;24.90;;;14.47;;
8628;SDS011;4352;49.404;11.092;2022-12-11T01:30:02;26.63;;;14.50;;
8628;SDS011;4352;49.404;11.092;2022-12-11T01:32:31;27.27;;;15.23;;
8628;SDS011;4352;49.404;11.092;2022-12-11T01:34:58;33.97;;;17.20;;
8628;SDS011;4352;49.404;11.092;2022-12-11T01:37:25;25.97;;;15.27;;
8628;SDS011;4352;49.404;11.092;2022-12-11T01:39:52;27.03;;;15.30;;
8628;SDS011;4352;49.404;11.092;2022-12-11T01:42:19;24.60;;;14.97;;
8628;SDS011;4352;49.404;11.092;2022-12-11T01:47:33;25.20;;;14.53;;
8628;SDS011;4352;49.404;11.092;2022-12-11T01:50:00;24.80;;;14.17;;
8628;SDS011;4352;49.404;11.092;2022-12-11T01:52:28;25.60;;;15.00;;
8628;SDS011;4352;49.404;11.092;2022-12-11T01:54:55;24.43;;;14.73;;
8628;SDS011;4352;49.404;11.092;2022-12-11T01:57:22;23.60;;;13.67;;
8628;SDS011;4352;49.404;11.092;2022-12-11T01:59:49;23.40;;;13.60;;
8628;SDS011;4352;49.404;11.092;2022-12-11T02:02:18;24.57;;;13.40;;
8628;SDS011;4352;49.404;11.092;2022-12-11T02:04:47;26.57;;;14.93;;
8628;SDS011;4352;49.404;11.092;2022-12-11T02:07:14;25.17;;;14.53;;
8628;SDS011;4352;49.404;11.092;2022-12-11T02:09:42;26.23;;;14.77;;
8628;SDS011;4352;49.404;11.092;2022-12-11T02:12:12;24.33;;;14.00;;
8628;SDS011;4352;49.404;11.092;2022-12-11T02:14:42;28.93;;;15.77;;
8628;SDS011;4352;49.404;11.092;2022-12-11T02:17:11;28.20;;;15.20;;
8628;SDS011;4352;49.404;11.092;2022-12-11T02:19:43;28.17;;;15.40;;
8628;SDS011;4352;49.404;11.092;2022-12-11T02:22:14;29.63;;;16.43;;
8628;SDS011;4352;49.404;11.092;2022-12-11T02:24:50;28.87;;;16.33;;
8628;SDS011;4352;49.404;11.092;2022-12-11T02:27:22;30.20;;;16.43;;
8628;SDS011;4352;49.404;11.092;2022-12-11T02:29:55;29.67;;;16.17;;
8628;SDS011;4352;49.404;11.092;2022-12-11T02:32:24;25.10;;;15.33;;
8628;SDS011;4352;49.404;11.092;2022-12-11T02:34:54;27.40;;;16.07;;
8628;SDS011;4352;49.404;11.092;2022-12-11T02:37:23;33.00;;;17.07;;
8628;SDS011;4352;49.404;11.092;2022-12-11T02:39:53;28.00;;;15.60;;
8628;SDS011;4352;49.404;11.092;2022-12-11T02:42:20;25.20;;;14.97;;
8628;SDS011;4352;49.404;11.092;2022-12-11T02:44:49;27.47;;;16.43;;
8628;SDS011;4352;49.404;11.092;2022-12-11T02:47:18;28.53;;;16.50;;
8628;SDS011;4352;49.404;11.092;2022-12-11T02:49:47;27.73;;;16.07;;
8628;SDS011;4352;49.404;11.092;2022-12-11T02:52:15;28.40;;;15.87;;
8628;SDS011;4352;49.404;11.092;2022-12-11T02:54:44;26.13;;;15.73;;
8628;SDS011;4352;49.404;11.092;2022-12-11T02:57:13;26.53;;;15.73;;
8628;SDS011;4352;49.404;11.092;2022-12-11T02:59:43;24.80;;;15.67;;
8628;SDS011;4352;49.404;11.092;2022-12-11T03:02:10;23.50;;;14.73;;
8628;SDS011;4352;49.404;11.092;2022-12-11T03:04:39;25.67;;;15.47;;
8628;SDS011;4352;49.404;11.092;2022-12-11T03:07:09;26.57;;;15.73;;
8628;SDS011;4352;49.404;11.092;2022-12-11T03:09:37;30.60;;;16.87;;
8628;SDS011;4352;49.404;11.092;2022-12-11T03:12:04;28.10;;;15.67;;
8628;SDS011;4352;49.404;11.092;2022-12-11T03:14:32;28.43;;;16.97;;
8628;SDS011;4352;49.404;11.092;2022-12-11T03:17:01;26.37;;;15.97;;
8628;SDS011;4352;49.404;11.092;2022-12-11T03:19:31;28.13;;;17.07;;
8628;SDS011;4352;49.404;11.092;2022-12-11T03:22:04;28.27;;;16.40;;
8628;SDS011;4352;49.404;11.092;2022-12-11T03:24:36;22.47;;;13.73;;
8628;SDS011;4352;49.404;11.092;2022-12-11T03:27:05;27.73;;;15.67;;
8628;SDS011;4352;49.404;11.092;2022-12-11T03:29:36;25.67;;;14.17;;
8628;SDS011;4352;49.404;11.092;2022-12-11T03:32:05;26.67;;;15.23;;
8628;SDS011;4352;49.404;11.092;2022-12-11T03:34:36;25.50;;;14.67;;
8628;SDS011;4352;49.404;11.092;2022-12-11T03:37:05;23.97;;;14.30;;
8628;SDS011;4352;49.404;11.092;2022-12-11T03:39:35;24.43;;;15.13;;
8628;SDS011;4352;49.404;11.092;2022-12-11T03:42:04;24.40;;;14.20;;
8628;SDS011;4352;49.404;11.092;2022-12-11T03:44:32;24.60;;;14.63;;
8628;SDS011;4352;49.404;11.092;2022-12-11T03:47:00;24.70;;;14.93;;
8628;SDS011;4352;49.404;11.092;2022-12-11T03:49:29;23.27;;;14.37;;
8628;SDS011;4352;49.404;11.092;2022-12-11T03:51:57;22.90;;;13.43;;
8628;SDS011;4352;49.404;11.092;2022-12-11T03:54:27;25.63;;;15.23;;
8628;SDS011;4352;49.404;11.092;2022-12-11T03:56:55;22.20;;;14.57;;
8628;SDS011;4352;49.404;11.092;2022-12-11T03:59:23;24.57;;;15.13;;
8628;SDS011;4352;49.404;11.092;2022-12-11T04:01:50;27.03;;;15.67;;
8628;SDS011;4352;49.404;11.092;2022-12-11T04:04:17;27.70;;;16.30;;
8628;SDS011;4352;49.404;11.092;2022-12-11T04:06:44;28.43;;;16.53;;
8628;SDS011;4352;49.404;11.092;2022-12-11T04:09:11;30.43;;;17.67;;
8628;SDS011;4352;49.404;11.092;2022-12-11T04:11:40;30.30;;;17.17;;
8628;SDS011;4352;49.404;11.092;2022-12-11T04:14:08;28.10;;;16.50;;
8628;SDS011;4352;49.404;11.092;2022-12-11T04:16:53;27.03;;;16.07;;
8628;SDS011;4352;49.404;11.092;2022-12-11T04:19:21;28.67;;;17.63;;
8628;SDS011;4352;49.404;11.092;2022-12-11T04:22:06;31.73;;;17.67;;
8628;SDS011;4352;49.404;11.092;2022-12-11T04:24:56;30.30;;;17.43;;
8628;SDS011;4352;49.404;11.092;2022-12-11T04:27:24;32.57;;;17.30;;
8628;SDS011;4352;49.404;11.092;2022-12-11T04:30:11;31.83;;;17.97;;
8628;SDS011;4352;49.404;11.092;2022-12-11T04:32:38;33.27;;;17.40;;
8628;SDS011;4352;49.404;11.092;2022-12-11T04:35:06;35.30;;;18.00;;
8628;SDS011;4352;49.404;11.092;2022-12-11T04:37:33;34.77;;;17.40;;
8628;SDS011;4352;49.404;11.092;2022-12-11T04:40:00;32.73;;;18.17;;
8628;SDS011;4352;49.404;11.092;2022-12-11T04:42:29;31.27;;;17.43;;
8628;SDS011;4352;49.404;11.092;2022-12-11T04:44:56;32.87;;;18.57;;
8628;SDS011;4352;49.404;11.092;2022-12-11T04:47:23;31.73;;;18.50;;
8628;SDS011;4352;49.404;11.092;2022-12-11T04:49:51;33.67;;;18.40;;
8628;SDS011;4352;49.404;11.092;2022-12-11T04:52:18;33.03;;;19.17;;
8628;SDS011;4352;49.404;11.092;2022-12-11T04:54:45;33.43;;;18.53;;
8628;SDS011;4352;49.404;11.092;2022-12-11T04:57:12;32.33;;;17.67;;
8628;SDS011;4352;49.404;11.092;2022-12-11T04:59:42;33.80;;;18.53;;
8628;SDS011;4352;49.404;11.092;2022-12-11T05:02:09;31.50;;;17.77;;
8628;SDS011;4352;49.404;11.092;2022-12-11T05:04:36;31.63;;;17.77;;
8628;SDS011;4352;49.404;11.092;2022-12-11T05:07:03;32.50;;;17.80;;
8628;SDS011;4352;49.404;11.092;2022-12-11T05:09:30;30.13;;;16.93;;
8628;SDS011;4352;49.404;11.092;2022-12-11T05:11:58;28.33;;;16.77;;
8628;SDS011;4352;49.404;11.092;2022-12-11T05:14:25;33.30;;;17.73;;
8628;SDS011;4352;49.404;11.092;2022-12-11T05:16:57;29.70;;;16.97;;
8628;SDS011;4352;49.404;11.092;2022-12-11T05:19:24;28.50;;;16.77;;
8628;SDS011;4352;49.404;11.092;2022-12-11T05:21:51;31.80;;;17.70;;
8628;SDS011;4352;49.404;11.092;2022-12-11T05:24:18;41.17;;;20.63;;
8628;SDS011;4352;49.404;11.092;2022-12-11T05:26:45;38.40;;;19.83;;
8628;SDS011;4352;49.404;11.092;2022-12-11T05:29:13;45.17;;;22.30;;
8628;SDS011;4352;49.404;11.092;2022-12-11T05:31:40;37.33;;;20.07;;
8628;SDS011;4352;49.404;11.092;2022-12-11T05:34:08;36.60;;;19.97;;
8628;SDS011;4352;49.404;11.092;2022-12-11T05:36:35;31.17;;;17.63;;
8628;SDS011;4352;49.404;11.092;2022-12-11T05:39:02;31.80;;;17.43;;
8628;SDS011;4352;49.404;11.092;2022-12-11T05:41:30;32.23;;;17.23;;
8628;SDS011;4352;49.404;11.092;2022-12-11T05:43:57;30.97;;;16.80;;
8628;SDS011;4352;49.404;11.092;2022-12-11T05:46:25;32.30;;;17.17;;
8628;SDS011;4352;49.404;11.092;2022-12-11T05:48:53;31.03;;;16.77;;
8628;SDS011;4352;49.404;11.092;2022-12-11T05:51:22;32.07;;;17.00;;
8628;SDS011;4352;49.404;11.092;2022-12-11T05:53:50;28.43;;;15.87;;
8628;SDS011;4352;49.404;11.092;2022-12-11T05:56:18;31.97;;;17.13;;
8628;SDS011;4352;49.404;11.092;2022-12-11T05:58:46;31.97;;;17.30;;
8628;SDS011;4352;49.404;11.092;2022-12-11T06:01:14;30.97;;;17.37;;
8628;SDS011;4352;49.404;11.092;2022-12-11T06:03:41;32.00;;;16.40;;
8628;SDS011;4352;49.404;11.092;2022-12-11T06:06:08;33.33;;;17.43;;
8628;SDS011;4352;49.404;11.092;2022-12-11T06:08:37;34.17;;;17.33;;
8628;SDS011;4352;49.404;11.092;2022-12-11T06:11:04;28.87;;;15.53;;
8628;SDS011;4352;49.404;11.092;2022-12-11T06:13:31;33.30;;;16.83;;
8628;SDS011;4352;49.404;11.092;2022-12-11T06:15:59;31.23;;;17.53;;
8628;SDS011;4352;49.404;11.092;2022-12-11T06:18:27;30.90;;;16.80;;
8628;SDS011;4352;49.404;11.092;2022-12-11T06:20:54;30.10;;;16.37;;
8628;SDS011;4352;49.404;11.092;2022-12-11T06:23:21;31.00;;;17.10;;
8628;SDS011;4352;49.404;11.092;2022-12-11T06:25:50;29.67;;;16.40;;
8628;SDS011;4352;49.404;11.092;2022-12-11T06:28:17;31.47;;;17.07;;
8628;SDS011;4352;49.404;11.092;2022-12-11T06:30:44;30.70;;;15.70;;
8628;SDS011;4352;49.404;11.092;2022-12-11T06:33:11;31.27;;;16.83;;
8628;SDS011;4352;49.404;11.092;2022-12-11T06:35:38;29.73;;;16.87;;
8628;SDS011;4352;49.404;11.092;2022-12-11T06:38:05;30.43;;;16.60;;
8628;SDS011;4352;49.404;11.092;2022-12-11T06:40:32;31.93;;;17.50;;
8628;SDS011;4352;49.404;11.092;2022-12-11T06:43:01;31.17;;;16.40;;
8628;SDS011;4352;49.404;11.092;2022-12-11T06:45:28;32.40;;;17.37;;
8628;SDS011;4352;49.404;11.092;2022-12-11T06:47:55;30.37;;;16.37;;
8628;SDS011;4352;49.404;11.092;2022-12-11T06:50:22;32.27;;;16.27;;
8628;SDS011;4352;49.404;11.092;2022-12-11T06:52:49;32.40;;;17.27;;
8628;SDS011;4352;49.404;11.092;2022-12-11T06:55:16;33.73;;;17.57;;
8628;SDS011;4352;49.404;11.092;2022-12-11T06:57:44;33.47;;;16.77;;
8628;SDS011;4352;49.404;11.092;2022-12-11T07:00:13;30.90;;;15.83;;
8628;SDS011;4352;49.404;11.092;2022-12-11T07:02:40;31.93;;;17.77;;
8628;SDS011;4352;49.404;11.092;2022-12-11T07:05:07;33.63;;;17.20;;
8628;SDS011;4352;49.404;11.092;2022-12-11T07:07:36;33.67;;;16.70;;
8628;SDS011;4352;49.404;11.092;2022-12-11T07:10:03;32.23;;;17.17;;
8628;SDS011;4352;49.404;11.092;2022-12-11T07:12:30;34.43;;;16.67;;
8628;SDS011;4352;49.404;11.092;2022-12-11T07:14:57;34.30;;;16.63;;
8628;SDS011;4352;49.404;11.092;2022-12-11T07:17:26;38.47;;;18.53;;
8628;SDS011;4352;49.404;11.092;2022-12-11T07:19:54;36.80;;;16.87;;
8628;SDS011;4352;49.404;11.092;2022-12-11T07:22:21;31.97;;;17.60;;
8628;SDS011;4352;49.404;11.092;2022-12-11T07:24:48;33.10;;;16.77;;
8628;SDS011;4352;49.404;11.092;2022-12-11T07:27:15;35.67;;;18.50;;
8628;SDS011;4352;49.404;11.092;2022-12-11T07:29:42;50.00;;;23.60;;
8628;SDS011;4352;49.404;11.092;2022-12-11T07:32:09;44.50;;;22.63;;
8628;SDS011;4352;49.404;11.092;2022-12-11T07:34:38;44.73;;;22.50;;
8628;SDS011;4352;49.404;11.092;2022-12-11T07:37:05;39.87;;;21.10;;
8628;SDS011;4352;49.404;11.092;2022-12-11T07:39:32;40.67;;;20.13;;
8628;SDS011;4352;49.404;11.092;2022-12-11T07:41:59;35.70;;;19.37;;
8628;SDS011;4352;49.404;11.092;2022-12-11T07:44:26;38.07;;;19.03;;
8628;SDS011;4352;49.404;11.092;2022-12-11T07:46:54;35.53;;;18.37;;
8628;SDS011;4352;49.404;11.092;2022-12-11T07:49:21;32.63;;;18.00;;
8628;SDS011;4352;49.404;11.092;2022-12-11T07:51:49;34.23;;;19.30;;
8628;SDS011;4352;49.404;11.092;2022-12-11T07:54:16;35.83;;;18.03;;
8628;SDS011;4352;49.404;11.092;2022-12-11T07:56:46;35.50;;;19.77;;
8628;SDS011;4352;49.404;11.092;2022-12-11T07:59:13;34.73;;;18.53;;
8628;SDS011;4352;49.404;11.092;2022-12-11T08:01:40;35.80;;;19.23;;
8628;SDS011;4352;49.404;11.092;2022-12-11T08:04:09;38.90;;;20.03;;
8628;SDS011;4352;49.404;11.092;2022-12-11T08:06:39;32.73;;;18.20;;
8628;SDS011;4352;49.404;11.092;2022-12-11T08:09:08;39.20;;;20.10;;
8628;SDS011;4352;49.404;11.092;2022-12-11T08:11:36;34.47;;;18.53;;
8628;SDS011;4352;49.404;11.092;2022-12-11T08:14:03;38.07;;;20.03;;
8628;SDS011;4352;49.404;11.092;2022-12-11T08:16:31;35.03;;;18.43;;
8628;SDS011;4352;49.404;11.092;2022-12-11T08:18:58;37.07;;;20.50;;
8628;SDS011;4352;49.404;11.092;2022-12-11T08:21:26;34.20;;;19.43;;
8628;SDS011;4352;49.404;11.092;2022-12-11T08:23:53;33.13;;;18.63;;
8628;SDS011;4352;49.404;11.092;2022-12-11T08:26:23;30.57;;;18.37;;
8628;SDS011;4352;49.404;11.092;2022-12-11T08:28:50;33.97;;;19.23;;
8628;SDS011;4352;49.404;11.092;2022-12-11T08:31:18;31.50;;;17.97;;
8628;SDS011;4352;49.404;11.092;2022-12-11T08:33:45;31.17;;;18.10;;
8628;SDS011;4352;49.404;11.092;2022-12-11T08:36:14;31.90;;;17.67;;
8628;SDS011;4352;49.404;11.092;2022-12-11T08:38:41;31.67;;;19.67;;
8628;SDS011;4352;49.404;11.092;2022-12-11T08:41:09;29.27;;;17.40;;
8628;SDS011;4352;49.404;11.092;2022-12-11T08:43:38;28.40;;;17.00;;
8628;SDS011;4352;49.404;11.092;2022-12-11T08:46:05;30.90;;;15.80;;
8628;SDS011;4352;49.404;11.092;2022-12-11T08:48:32;25.07;;;15.83;;
8628;SDS011;4352;49.404;11.092;2022-12-11T08:50:59;27.10;;;15.73;;
8628;SDS011;4352;49.404;11.092;2022-12-11T08:53:27;25.10;;;14.90;;
8628;SDS011;4352;49.404;11.092;2022-12-11T08:55:59;24.80;;;15.73;;
8628;SDS011;4352;49.404;11.092;2022-12-11T08:58:26;23.37;;;15.37;;
8628;SDS011;4352;49.404;11.092;2022-12-11T09:00:54;29.97;;;17.03;;
8628;SDS011;4352;49.404;11.092;2022-12-11T09:03:22;25.83;;;15.50;;
8628;SDS011;4352;49.404;11.092;2022-12-11T09:05:49;25.83;;;15.17;;
8628;SDS011;4352;49.404;11.092;2022-12-11T09:08:16;25.67;;;14.73;;
8628;SDS011;4352;49.404;11.092;2022-12-11T09:10:43;24.27;;;15.10;;
8628;SDS011;4352;49.404;11.092;2022-12-11T09:13:10;24.83;;;15.43;;
8628;SDS011;4352;49.404;11.092;2022-12-11T09:15:38;25.23;;;15.00;;
8628;SDS011;4352;49.404;11.092;2022-12-11T09:18:07;25.17;;;14.67;;
8628;SDS011;4352;49.404;11.092;2022-12-11T09:20:34;23.07;;;15.00;;
8628;SDS011;4352;49.404;11.092;2022-12-11T09:23:01;24.63;;;15.60;;
8628;SDS011;4352;49.404;11.092;2022-12-11T09:25:28;24.77;;;15.33;;
8628;SDS011;4352;49.404;11.092;2022-12-11T09:27:55;25.27;;;14.67;;
8628;SDS011;4352;49.404;11.092;2022-12-11T09:30:22;23.53;;;14.87;;
8628;SDS011;4352;49.404;11.092;2022-12-11T09:32:50;24.10;;;14.80;;
8628;SDS011;4352;49.404;11.092;2022-12-11T09:35:18;23.73;;;14.90;;
8628;SDS011;4352;49.404;11.092;2022-12-11T09:37:46;20.77;;;13.73;;
8628;SDS011;4352;49.404;11.092;2022-12-11T09:40:13;23.87;;;14.47;;
8628;SDS011;4352;49.404;11.092;2022-12-11T09:42:44;22.60;;;13.63;;
8628;SDS011;4352;49.404;11.092;2022-12-11T09:45:13;31.77;;;17.43;;
8628;SDS011;4352;49.404;11.092;2022-12-11T09:47:42;23.77;;;14.07;;
8628;SDS011;4352;49.404;11.092;2022-12-11T09:50:11;23.60;;;14.43;;
8628;SDS011;4352;49.404;11.092;2022-12-11T09:52:42;27.70;;;16.07;;
8628;SDS011;4352;49.404;11.092;2022-12-11T09:55:12;26.23;;;15.30;;
8628;SDS011;4352;49.404;11.092;2022-12-11T09:57:43;27.50;;;15.87;;
8628;SDS011;4352;49.404;11.092;2022-12-11T10:00:13;22.43;;;14.13;;
8628;SDS011;4352;49.404;11.092;2022-12-11T10:02:50;26.50;;;15.53;;
8628;SDS011;4352;49.404;11.092;2022-12-11T10:05:25;22.70;;;14.50;;
8628;SDS011;4352;49.404;11.092;2022-12-11T10:07:58;24.00;;;14.07;;
8628;SDS011;4352;49.404;11.092;2022-12-11T10:10:30;23.60;;;14.50;;
8628;SDS011;4352;49.404;11.092;2022-12-11T10:13:00;25.93;;;14.63;;
8628;SDS011;4352;49.404;11.092;2022-12-11T10:15:33;23.10;;;14.60;;
8628;SDS011;4352;49.404;11.092;2022-12-11T10:18:02;21.73;;;14.30;;
8628;SDS011;4352;49.404;11.092;2022-12-11T10:20:31;21.60;;;13.57;;
8628;SDS011;4352;49.404;11.092;2022-12-11T10:23:04;22.43;;;12.80;;
8628;SDS011;4352;49.404;11.092;2022-12-11T10:25:33;22.83;;;13.17;;
8628;SDS011;4352;49.404;11.092;2022-12-11T10:28:07;18.63;;;12.00;;
8628;SDS011;4352;49.404;11.092;2022-12-11T10:30:35;19.73;;;12.30;;
8628;SDS011;4352;49.404;11.092;2022-12-11T10:33:05;18.57;;;11.50;;
8628;SDS011;4352;49.404;11.092;2022-12-11T10:35:38;18.97;;;11.37;;
8628;SDS011;4352;49.404;11.092;2022-12-11T10:38:11;17.97;;;10.13;;
8628;SDS011;4352;49.404;11.092;2022-12-11T10:40:39;17.60;;;10.73;;
8628;SDS011;4352;49.404;11.092;2022-12-11T10:43:07;16.03;;;10.20;;
8628;SDS011;4352;49.404;11.092;2022-12-11T10:45:34;17.63;;;10.90;;
8628;SDS011;4352;49.404;11.092;2022-12-11T10:48:03;19.07;;;10.67;;
8628;SDS011;4352;49.404;11.092;2022-12-11T10:50:30;16.07;;;10.43;;
8628;SDS011;4352;49.404;11.092;2022-12-11T10:52:57;15.23;;;9.70;;
8628;SDS011;4352;49.404;11.092;2022-12-11T10:55:26;15.17;;;9.83;;
8628;SDS011;4352;49.404;11.092;2022-12-11T10:57:54;18.50;;;11.00;;
8628;SDS011;4352;49.404;11.092;2022-12-11T11:00:31;13.73;;;9.57;;
8628;SDS011;4352;49.404;11.092;2022-12-11T11:02:59;16.90;;;9.47;;
8628;SDS011;4352;49.404;11.092;2022-12-11T11:05:27;16.80;;;10.13;;
8628;SDS011;4352;49.404;11.092;2022-12-11T11:08:10;15.47;;;9.63;;
8628;SDS011;4352;49.404;11.092;2022-12-11T11:10:49;17.13;;;11.03;;
8628;SDS011;4352;49.404;11.092;2022-12-11T11:13:16;16.50;;;11.17;;
8628;SDS011;4352;49.404;11.092;2022-12-11T11:15:46;15.53;;;10.27;;
8628;SDS011;4352;49.404;11.092;2022-12-11T11:18:15;17.23;;;11.03;;
8628;SDS011;4352;49.404;11.092;2022-12-11T11:20:47;18.77;;;11.63;;
8628;SDS011;4352;49.404;11.092;2022-12-11T11:23:14;20.20;;;12.37;;
8628;SDS011;4352;49.404;11.092;2022-12-11T11:25:47;21.20;;;13.63;;
8628;SDS011;4352;49.404;11.092;2022-12-11T11:28:16;22.90;;;13.43;;
8628;SDS011;4352;49.404;11.092;2022-12-11T11:30:53;21.27;;;12.90;;
8628;SDS011;4352;49.404;11.092;2022-12-11T11:33:21;19.43;;;11.40;;
8628;SDS011;4352;49.404;11.092;2022-12-11T11:35:50;19.10;;;11.53;;
8628;SDS011;4352;49.404;11.092;2022-12-11T11:38:18;20.43;;;11.87;;
8628;SDS011;4352;49.404;11.092;2022-12-11T11:40:46;20.83;;;11.67;;
8628;SDS011;4352;49.404;11.092;2022-12-11T11:43:19;20.23;;;11.77;;
8628;SDS011;4352;49.404;11.092;2022-12-11T11:45:54;19.53;;;11.60;;
8628;SDS011;4352;49.404;11.092;2022-12-11T11:48:26;22.03;;;13.17;;
8628;SDS011;4352;49.404;11.092;2022-12-11T11:50:56;21.23;;;12.60;;
8628;SDS011;4352;49.404;11.092;2022-12-11T11:53:25;21.53;;;12.50;;
8628;SDS011;4352;49.404;11.092;2022-12-11T11:55:57;18.77;;;11.27;;
8628;SDS011;4352;49.404;11.092;2022-12-11T11:58:29;18.30;;;11.77;;
8628;SDS011;4352;49.404;11.092;2022-12-11T12:00:59;20.57;;;11.93;;
8628;SDS011;4352;49.404;11.092;2022-12-11T12:03:26;22.07;;;12.53;;
8628;SDS011;4352;49.404;11.092;2022-12-11T12:05:56;17.77;;;10.90;;
8628;SDS011;4352;49.404;11.092;2022-12-11T12:08:28;18.83;;;11.00;;
8628;SDS011;4352;49.404;11.092;2022-12-11T12:10:57;19.10;;;11.47;;
8628;SDS011;4352;49.404;11.092;2022-12-11T12:13:28;19.93;;;11.53;;
8628;SDS011;4352;49.404;11.092;2022-12-11T12:15:58;17.63;;;10.03;;
8628;SDS011;4352;49.404;11.092;2022-12-11T12:18:27;18.53;;;11.07;;
8628;SDS011;4352;49.404;11.092;2022-12-11T12:21:01;19.23;;;11.80;;
8628;SDS011;4352;49.404;11.092;2022-12-11T12:23:37;18.10;;;10.70;;
8628;SDS011;4352;49.404;11.092;2022-12-11T12:26:08;19.07;;;11.73;;
8628;SDS011;4352;49.404;11.092;2022-12-11T12:28:39;18.57;;;10.70;;
8628;SDS011;4352;49.404;11.092;2022-12-11T12:31:12;19.03;;;10.87;;
8628;SDS011;4352;49.404;11.092;2022-12-11T12:33:44;18.70;;;11.23;;
8628;SDS011;4352;49.404;11.092;2022-12-11T12:36:16;18.77;;;11.17;;
8628;SDS011;4352;49.404;11.092;2022-12-11T12:38:46;14.73;;;10.07;;
8628;SDS011;4352;49.404;11.092;2022-12-11T12:41:18;19.53;;;11.73;;
8628;SDS011;4352;49.404;11.092;2022-12-11T12:43:51;18.93;;;11.40;;
8628;SDS011;4352;49.404;11.092;2022-12-11T12:46:25;21.07;;;12.40;;
8628;SDS011;4352;49.404;11.092;2022-12-11T12:48:54;17.63;;;10.37;;
8628;SDS011;4352;49.404;11.092;2022-12-11T12:51:22;14.93;;;9.93;;
8628;SDS011;4352;49.404;11.092;2022-12-11T12:53:51;16.10;;;10.30;;
8628;SDS011;4352;49.404;11.092;2022-12-11T12:56:19;16.90;;;9.93;;
8628;SDS011;4352;49.404;11.092;2022-12-11T12:58:46;14.80;;;9.33;;
8628;SDS011;4352;49.404;11.092;2022-12-11T13:01:16;16.40;;;10.90;;
8628;SDS011;4352;49.404;11.092;2022-12-11T13:03:53;16.83;;;10.20;;
8628;SDS011;4352;49.404;11.092;2022-12-11T13:06:28;16.53;;;10.43;;
8628;SDS011;4352;49.404;11.092;2022-12-11T13:08:55;16.13;;;9.17;;
8628;SDS011;4352;49.404;11.092;2022-12-11T13:11:30;15.53;;;10.07;;
8628;SDS011;4352;49.404;11.092;2022-12-11T13:14:01;18.13;;;9.70;;
8628;SDS011;4352;49.404;11.092;2022-12-11T13:16:35;18.37;;;9.93;;
8628;SDS011;4352;49.404;11.092;2022-12-11T13:19:02;18.13;;;10.40;;
8628;SDS011;4352;49.404;11.092;2022-12-11T13:21:30;19.77;;;10.70;;
8628;SDS011;4352;49.404;11.092;2022-12-11T13:24:15;19.17;;;10.43;;
8628;SDS011;4352;49.404;11.092;2022-12-11T13:26:43;25.80;;;10.70;;
8628;SDS011;4352;49.404;11.092;2022-12-11T13:31:56;15.53;;;9.43;;
8628;SDS011;4352;49.404;11.092;2022-12-11T13:34:24;21.63;;;10.73;;
8628;SDS011;4352;49.404;11.092;2022-12-11T13:36:53;21.80;;;12.20;;
8628;SDS011;4352;49.404;11.092;2022-12-11T13:39:22;11.07;;;7.90;;
8628;SDS011;4352;49.404;11.092;2022-12-11T13:41:51;14.57;;;8.77;;
8628;SDS011;4352;49.404;11.092;2022-12-11T13:44:20;17.10;;;9.43;;
8628;SDS011;4352;49.404;11.092;2022-12-11T13:46:49;13.37;;;8.07;;
8628;SDS011;4352;49.404;11.092;2022-12-11T13:49:19;16.40;;;9.20;;
8628;SDS011;4352;49.404;11.092;2022-12-11T13:51:50;17.67;;;9.23;;
8628;SDS011;4352;49.404;11.092;2022-12-11T13:54:17;17.63;;;9.27;;
8628;SDS011;4352;49.404;11.092;2022-12-11T13:56:54;13.37;;;7.90;;
8628;SDS011;4352;49.404;11.092;2022-12-11T13:59:23;12.97;;;7.83;;
8628;SDS011;4352;49.404;11.092;2022-12-11T14:01:50;13.80;;;8.17;;
8628;SDS011;4352;49.404;11.092;2022-12-11T14:04:20;13.80;;;7.60;;
8628;SDS011;4352;49.404;11.092;2022-12-11T14:06:48;16.10;;;9.40;;
8628;SDS011;4352;49.404;11.092;2022-12-11T14:09:16;17.83;;;9.97;;
8628;SDS011;4352;49.404;11.092;2022-12-11T14:11:44;13.97;;;8.23;;
8628;SDS011;4352;49.404;11.092;2022-12-11T14:14:15;13.83;;;8.17;;
8628;SDS011;4352;49.404;11.092;2022-12-11T14:16:45;13.67;;;8.50;;
8628;SDS011;4352;49.404;11.092;2022-12-11T14:19:13;14.10;;;8.17;;
8628;SDS011;4352;49.404;11.092;2022-12-11T14:21:42;18.27;;;9.30;;
8628;SDS011;4352;49.404;11.092;2022-12-11T14:24:10;18.37;;;10.00;;
8628;SDS011;4352;49.404;11.092;2022-12-11T14:26:38;15.53;;;8.13;;
8628;SDS011;4352;49.404;11.092;2022-12-11T14:29:05;11.20;;;7.03;;
8628;SDS011;4352;49.404;11.092;2022-12-11T14:31:32;14.07;;;7.83;;
8628;SDS011;4352;49.404;11.092;2022-12-11T14:34:01;14.50;;;7.63;;
8628;SDS011;4352;49.404;11.092;2022-12-11T14:36:28;13.73;;;8.37;;
8628;SDS011;4352;49.404;11.092;2022-12-11T14:38:58;12.90;;;7.67;;
8628;SDS011;4352;49.404;11.092;2022-12-11T14:41:28;13.27;;;7.50;;
8628;SDS011;4352;49.404;11.092;2022-12-11T14:43:57;13.33;;;7.63;;
8628;SDS011;4352;49.404;11.092;2022-12-11T14:46:33;13.70;;;7.77;;
8628;SDS011;4352;49.404;11.092;2022-12-11T14:49:03;16.33;;;7.20;;
8628;SDS011;4352;49.404;11.092;2022-12-11T14:51:33;12.27;;;7.50;;